Time;durP1;ratioP1;P1;durP2;ratioP2;P2;SDS_P1;SDS_P2;PMS_P1;PMS_P2;Temp;Humidity;BMP_temperature;BMP_pressure;BME280_temperature;BME280_humidity;BME280_pressure;Samples;Min_cycle;Max_cycle;Signal;HPM_P1;HPM_P2
2023/02/25 00:01:28;;;;;;;17.40;3.72;;;3.80;99.90;;;-144.05;78.77;57086.72;5017366;28;20109;-77
2023/02/25 00:03:55;;;;;;;17.33;2.80;;;3.80;99.90;;;-144.05;78.80;57048.50;5017312;28;20030;-79
2023/02/25 00:06:23;;;;;;;12.25;2.65;;;3.80;99.90;;;-144.05;79.34;57067.59;5000140;28;20029;-77
2023/02/25 00:08:51;;;;;;;17.00;2.80;;;3.80;99.90;;;-144.05;78.97;57073.97;4999887;28;20393;-77
2023/02/25 00:11:19;;;;;;;21.50;3.30;;;3.80;99.90;;;-144.05;78.73;57095.22;4999705;28;20080;-77
2023/02/25 00:13:46;;;;;;;21.98;3.17;;;3.80;99.90;;;-144.05;78.95;57069.72;5017614;28;20096;-78
2023/02/25 00:16:14;;;;;;;15.15;2.88;;;3.80;99.90;;;-144.05;78.68;57063.34;4999055;28;20034;-79
2023/02/25 00:18:45;;;;;;;18.33;2.70;;;3.80;99.90;;;-144.05;78.49;57067.59;5016761;28;20112;-77
2023/02/25 00:21:14;;;;;;;16.65;2.20;;;3.80;99.90;;;-144.05;78.87;57093.09;5016454;28;20409;-80
2023/02/25 00:23:47;;;;;;;21.27;2.63;;;3.80;99.90;;;-144.05;78.34;57071.84;5017192;28;20030;-77
2023/02/25 00:26:16;;;;;;;14.73;3.38;;;3.80;99.90;;;-144.05;77.66;57086.72;5017043;28;20033;-78
2023/02/25 00:28:43;;;;;;;10.05;1.95;;;3.80;99.90;;;-144.05;78.09;57071.84;5014697;28;20184;-76
2023/02/25 00:31:26;;;;;;;17.38;3.33;;;3.80;99.90;;;-144.05;78.15;57078.22;5015985;28;20033;-79
2023/02/25 00:33:52;;;;;;;15.48;2.90;;;3.80;99.90;;;-144.05;78.00;57076.09;4999130;28;20034;-79
2023/02/25 00:36:25;;;;;;;9.02;1.80;;;3.80;99.90;;;-144.05;77.81;57078.22;4999157;28;20022;-77
2023/02/25 00:38:56;;;;;;;18.98;2.72;;;3.80;99.90;;;-144.05;77.62;57061.22;5016251;28;20075;-78
2023/02/25 00:41:29;;;;;;;22.10;4.13;;;3.80;99.90;;;-144.05;77.63;57103.72;5015995;28;20030;-78
2023/02/25 00:44:00;;;;;;;10.07;2.65;;;3.80;99.90;;;-144.05;77.32;57061.22;5016656;28;20026;-79
2023/02/25 00:46:29;;;;;;;18.10;2.50;;;3.80;99.90;;;-144.05;77.65;57067.59;4999154;28;20104;-79
2023/02/25 00:48:55;;;;;;;16.50;2.88;;;3.80;99.90;;;-144.05;77.71;57067.59;4998453;28;20026;-79
2023/02/25 00:51:28;;;;;;;16.10;3.42;;;3.80;99.90;;;-144.05;77.53;57069.72;5015995;28;20052;-79
2023/02/25 00:53:55;;;;;;;12.95;3.05;;;3.80;99.90;;;-144.05;77.54;57076.09;5016039;28;20121;-76
2023/02/25 00:56:24;;;;;;;13.10;2.47;;;3.80;99.90;;;-144.05;77.26;57095.22;4998693;28;20473;-81
2023/02/25 00:58:52;;;;;;;10.93;3.50;;;3.80;99.90;;;-144.05;77.28;57088.84;5014959;28;20076;-78
2023/02/25 01:01:30;;;;;;;15.88;2.78;;;3.70;99.90;;;-144.05;77.63;57078.22;5015412;28;20053;-78
2023/02/25 01:03:57;;;;;;;12.88;2.53;;;3.80;99.90;;;-144.05;76.91;57069.72;4998519;28;20026;-78
2023/02/25 01:06:27;;;;;;;18.95;2.47;;;3.80;99.90;;;-144.05;76.92;57088.84;5015596;28;20053;-76
2023/02/25 01:08:53;;;;;;;18.90;2.80;;;3.80;99.90;;;-144.05;76.84;57078.22;5016069;28;20121;-79
2023/02/25 01:11:27;;;;;;;12.15;2.47;;;3.80;99.90;;;-144.05;76.39;57073.97;5016034;28;20429;-78
2023/02/25 01:14:02;;;;;;;15.63;2.72;;;3.90;99.90;;;-144.05;76.64;57076.09;5016277;28;20029;-79
2023/02/25 01:16:32;;;;;;;15.90;2.40;;;3.90;99.90;;;-144.05;76.25;57073.97;5015719;28;20022;-79
2023/02/25 01:19:07;;;;;;;13.95;3.00;;;3.90;99.90;;;-144.05;76.08;57101.59;5015711;28;20477;-79
2023/02/25 01:21:41;;;;;;;20.23;3.10;;;3.90;99.90;;;-144.05;76.47;57061.22;5015298;28;20058;-77
2023/02/25 01:24:25;;;;;;;20.20;3.25;;;3.90;99.90;;;-144.05;76.65;57067.59;4998435;28;20038;-77
2023/02/25 01:26:59;;;;;;;17.90;2.17;;;3.90;99.90;;;-144.05;76.47;57048.50;5015906;28;20034;-75
2023/02/25 01:29:38;;;;;;;13.38;2.28;;;3.90;99.90;;;-144.05;76.62;57090.97;4996849;28;20045;-79
2023/02/25 01:32:09;;;;;;;18.38;2.78;;;3.90;99.90;;;-144.05;76.61;57067.59;5015570;28;20103;-78
2023/02/25 01:34:35;;;;;;;15.38;2.50;;;3.90;99.90;;;-144.05;76.39;57086.72;5015653;28;20033;-79
2023/02/25 01:37:03;;;;;;;13.27;3.15;;;4.00;99.90;;;-144.05;76.26;57078.22;5014388;28;20022;-78
2023/02/25 01:39:31;;;;;;;9.30;2.72;;;4.00;99.90;;;-144.05;76.83;57059.09;5015865;28;20018;-77
2023/02/25 01:42:02;;;;;;;12.48;1.95;;;4.00;99.90;;;-144.05;76.77;57088.84;5014516;28;20441;-78
2023/02/25 01:44:56;;;;;;;21.60;2.92;;;4.00;99.90;;;-144.05;76.54;57103.72;5015043;28;20033;-77
2023/02/25 01:47:22;;;;;;;16.85;1.92;;;4.00;99.90;;;-144.05;76.66;57071.84;4997562;28;20030;-78
2023/02/25 01:49:48;;;;;;;14.40;2.75;;;4.00;99.90;;;-144.05;76.71;57090.97;4997298;28;20083;-77
2023/02/25 01:52:24;;;;;;;14.35;2.40;;;4.00;99.90;;;-144.05;76.71;57078.22;5015262;28;20029;-78
2023/02/25 01:54:56;;;;;;;9.60;1.85;;;4.00;99.90;;;-144.05;76.72;57093.09;5015460;28;20026;-78
2023/02/25 01:57:24;;;;;;;12.38;2.42;;;4.00;99.90;;;-144.05;76.91;57052.75;5015575;28;20033;-79
2023/02/25 01:59:53;;;;;;;22.80;3.13;;;4.00;99.90;;;-144.05;77.30;57048.50;5013738;28;20034;-78
2023/02/25 02:02:24;;;;;;;14.98;2.47;;;4.00;99.90;;;-144.05;77.60;57056.97;4996991;28;20033;-77
2023/02/25 02:04:53;;;;;;;15.70;2.72;;;4.00;99.90;;;-144.05;77.93;57073.97;5014285;28;20034;-77
2023/02/25 02:07:23;;;;;;;11.43;2.60;;;4.00;99.90;;;-144.05;77.76;57090.97;5014225;28;20556;-76
2023/02/25 02:09:55;;;;;;;14.38;2.63;;;3.90;99.90;;;-144.05;78.10;57082.47;5013573;28;20030;-79
2023/02/25 02:12:32;;;;;;;16.33;2.53;;;3.90;99.90;;;-144.05;77.68;57090.97;5013797;28;20030;-78
2023/02/25 02:15:05;;;;;;;15.82;3.17;;;3.90;99.90;;;-144.05;77.45;57078.22;5012683;28;20105;-74
2023/02/25 02:18:02;;;;;;;15.70;2.95;;;3.90;99.90;;;-144.05;77.26;57084.59;5012479;28;20091;-78
2023/02/25 02:21:16;;;;;;;22.73;3.78;;;3.90;99.90;;;-144.05;77.53;57090.97;5013852;28;20030;-77
2023/02/25 02:24:20;;;;;;;17.73;2.67;;;3.90;99.90;;;-144.05;77.26;57069.72;5014722;28;20078;-78
2023/02/25 02:27:04;;;;;;;17.23;2.95;;;3.90;99.90;;;-144.05;78.15;57076.09;5013764;28;20041;-79
2023/02/25 02:30:16;;;;;;;13.65;3.03;;;3.90;99.90;;;-144.05;79.62;57052.75;4995756;28;20111;-78
2023/02/25 02:33:26;;;;;;;17.33;3.13;;;3.80;99.90;;;-144.05;80.05;57088.84;4997522;28;20052;-78
2023/02/25 02:36:05;;;;;;;16.15;3.45;;;3.70;99.90;;;-144.05;80.40;57067.59;5014538;28;20029;-77
2023/02/25 02:39:27;;;;;;;10.85;2.13;;;3.60;99.90;;;-144.05;80.67;57073.97;5014908;28;20504;-79
2023/02/25 02:42:40;;;;;;;15.18;2.60;;;3.60;99.90;;;-144.05;81.25;57076.09;4996454;28;20485;-79
2023/02/25 02:45:52;;;;;;;17.13;2.65;;;3.50;99.90;;;-144.05;81.36;57093.09;5014242;28;20026;-78
2023/02/25 02:48:46;;;;;;;17.55;2.08;;;3.50;99.90;;;-144.05;82.14;57084.59;5014101;28;20493;-76
2023/02/25 02:51:37;;;;;;;16.30;2.28;;;3.50;99.90;;;-144.05;82.32;57073.97;5014138;28;20061;-78
2023/02/25 02:54:11;;;;;;;20.23;2.70;;;3.50;99.90;;;-144.05;82.45;57061.22;5013777;28;20435;-77
2023/02/25 02:56:43;;;;;;;16.55;2.70;;;3.50;99.90;;;-144.05;82.86;57084.59;5014803;28;20026;-78
2023/02/25 02:59:41;;;;;;;9.73;2.05;;;3.50;99.90;;;-144.05;82.88;57099.47;5013749;28;20100;-79
2023/02/25 03:02:37;;;;;;;17.63;2.80;;;3.50;99.90;;;-144.05;82.81;57088.84;5015647;28;20029;-78
2023/02/25 03:05:15;;;;;;;13.70;3.38;;;3.50;99.90;;;-144.05;82.76;57076.09;5013835;28;20564;-76
2023/02/25 03:08:14;;;;;;;13.00;2.60;;;3.50;99.90;;;-144.05;83.06;57073.97;4996482;28;20038;-78
2023/02/25 03:10:40;;;;;;;18.77;2.80;;;3.60;99.90;;;-144.05;82.74;57046.38;4996233;28;20042;-79
2023/02/25 03:13:06;;;;;;;12.18;2.53;;;3.60;99.90;;;-144.05;82.69;57080.34;5013848;28;20133;-79
2023/02/25 03:15:34;;;;;;;15.57;2.97;;;3.60;99.90;;;-144.05;83.22;57052.75;5013630;28;20060;-77
2023/02/25 03:18:16;;;;;;;19.77;2.72;;;3.50;99.90;;;-144.05;82.84;57086.72;4995435;28;20041;-78
2023/02/25 03:20:49;;;;;;;14.52;2.58;;;3.60;99.90;;;-144.05;83.06;57061.22;5012978;28;20034;-77
2023/02/25 03:23:31;;;;;;;20.15;2.88;;;3.60;99.90;;;-144.05;82.86;57093.09;5013723;28;20034;-78
2023/02/25 03:26:29;;;;;;;17.27;2.50;;;3.60;99.90;;;-144.05;82.64;57059.09;4995954;28;20033;-78
2023/02/25 03:28:55;;;;;;;17.95;3.75;;;3.60;99.90;;;-144.05;82.39;57063.34;5014337;28;20523;-78
2023/02/25 03:31:31;;;;;;;19.42;2.95;;;3.60;99.90;;;-144.05;82.86;57097.34;5013663;28;20509;-78
2023/02/25 03:34:12;;;;;;;19.83;4.07;;;3.60;99.90;;;-144.05;83.01;57080.34;5013796;28;20040;-78
2023/02/25 03:36:55;;;;;;;22.52;3.33;;;3.60;99.90;;;-144.05;82.84;57061.22;5013587;28;20450;-77
2023/02/25 03:39:34;;;;;;;19.02;3.65;;;3.60;99.90;;;-144.05;82.71;57069.72;4995961;28;20092;-78
2023/02/25 03:42:05;;;;;;;16.33;3.00;;;3.60;99.90;;;-144.05;82.74;57063.34;5013518;28;20469;-78
2023/02/25 03:44:52;;;;;;;18.83;3.05;;;3.70;99.90;;;-144.05;82.24;57063.34;5014333;28;20069;-79
2023/02/25 03:47:23;;;;;;;18.42;3.03;;;3.70;99.90;;;-144.05;82.11;57067.59;5015185;28;20026;-78
2023/02/25 03:50:17;;;;;;;18.27;4.80;;;3.70;99.90;;;-144.05;81.94;57067.59;4995594;28;20030;-76
2023/02/25 03:52:43;;;;;;;19.63;4.32;;;3.70;99.90;;;-144.05;81.89;57061.22;5017480;28;20048;-78
2023/02/25 03:55:13;;;;;;;13.05;2.70;;;3.70;99.90;;;-144.05;81.40;57090.97;5017095;28;20092;-79
2023/02/25 03:57:44;;;;;;;21.00;5.43;;;3.70;99.90;;;-144.05;81.69;57093.09;5017560;28;20026;-78
2023/02/25 04:00:32;;;;;;;17.17;2.85;;;3.70;99.90;;;-144.05;81.64;57112.22;5016407;28;20373;-79
2023/02/25 04:02:58;;;;;;;27.75;3.45;;;3.80;99.90;;;-144.05;81.32;57073.97;5017636;28;20034;-78
2023/02/25 04:05:26;;;;;;;18.90;3.30;;;3.70;99.90;;;-144.05;81.34;57086.72;5016565;28;20029;-78
2023/02/25 04:07:58;;;;;;;21.20;4.47;;;3.70;99.90;;;-144.05;81.36;57052.75;5017066;28;20036;-79
2023/02/25 04:10:26;;;;;;;17.63;3.97;;;3.70;99.90;;;-144.05;81.09;57063.34;4999246;28;20101;-78
2023/02/25 04:12:52;;;;;;;31.48;4.45;;;3.70;99.90;;;-144.05;80.96;57076.09;5017000;28;20075;-76
2023/02/25 04:15:20;;;;;;;20.27;3.22;;;3.70;99.90;;;-144.05;80.82;57093.09;5016828;28;20044;-78
2023/02/25 04:17:46;;;;;;;18.88;3.15;;;3.70;99.90;;;-144.05;80.97;57076.09;4999264;28;20084;-80
2023/02/25 04:20:16;;;;;;;18.77;3.33;;;3.70;99.90;;;-144.05;81.09;57084.59;5016644;28;20030;-78
2023/02/25 04:22:42;;;;;;;20.45;4.43;;;3.70;99.90;;;-144.05;80.96;57080.34;5016002;28;20108;-79
2023/02/25 04:25:08;;;;;;;13.90;2.78;;;3.70;99.90;;;-144.05;80.86;57088.84;4998717;28;20068;-78
2023/02/25 04:27:34;;;;;;;11.40;2.50;;;3.70;99.90;;;-144.05;80.66;57076.09;5016857;28;20026;-78
2023/02/25 04:30:01;;;;;;;17.65;3.45;;;3.70;99.90;;;-144.05;80.83;57078.22;4998299;28;20045;-78
2023/02/25 04:32:26;;;;;;;15.10;2.97;;;3.60;99.90;;;-144.05;80.74;57061.22;4998384;28;20026;-78
2023/02/25 04:34:52;;;;;;;20.40;3.15;;;3.70;99.90;;;-144.05;80.60;57067.59;5016422;28;20497;-78
2023/02/25 04:37:18;;;;;;;18.33;4.47;;;3.70;99.90;;;-144.05;80.77;57069.72;5016550;28;20465;-78
2023/02/25 04:39:44;;;;;;;18.77;2.55;;;3.70;99.90;;;-144.05;80.37;57052.75;5016573;28;20034;-79
2023/02/25 04:42:10;;;;;;;18.90;3.05;;;3.70;99.90;;;-144.05;80.32;57050.63;5016486;28;20030;-79
2023/02/25 04:44:35;;;;;;;23.27;3.45;;;3.70;99.90;;;-144.05;80.28;57067.59;5015994;28;20026;-77
2023/02/25 04:47:02;;;;;;;15.65;2.83;;;3.70;99.90;;;-144.05;79.88;57048.50;5015718;28;20072;-78
2023/02/25 04:49:28;;;;;;;19.90;3.05;;;3.70;99.90;;;-144.05;80.22;57050.63;5015890;28;20030;-78
2023/02/25 04:51:54;;;;;;;20.75;3.13;;;3.70;99.90;;;-144.05;79.77;57069.72;5015513;28;20457;-79
2023/02/25 04:54:21;;;;;;;19.10;3.85;;;3.70;99.90;;;-144.05;79.79;57054.88;5017181;28;20046;-76
2023/02/25 04:56:48;;;;;;;18.52;3.45;;;3.70;99.90;;;-144.05;79.47;57065.47;5016259;28;20026;-76
2023/02/25 04:59:14;;;;;;;19.10;3.20;;;3.70;99.90;;;-144.05;79.65;57086.72;5015827;28;20129;-79
2023/02/25 05:01:41;;;;;;;24.15;3.47;;;3.70;99.90;;;-144.05;79.16;57063.34;4997154;28;20192;-77
2023/02/25 05:04:07;;;;;;;12.48;2.95;;;3.70;99.90;;;-144.05;79.37;57082.47;4996908;28;20401;-76
2023/02/25 05:06:33;;;;;;;21.05;2.75;;;3.70;99.90;;;-144.05;79.58;57056.97;5015257;28;20030;-76
2023/02/25 05:08:59;;;;;;;16.65;2.95;;;3.70;99.90;;;-144.05;79.51;57069.72;4996847;28;20073;-78
2023/02/25 05:11:27;;;;;;;16.48;2.65;;;3.70;99.90;;;-144.05;79.30;57061.22;4997278;28;20026;-78
2023/02/25 05:13:57;;;;;;;11.15;2.70;;;3.70;99.90;;;-144.05;79.41;57069.72;5015592;28;20073;-77
2023/02/25 05:16:24;;;;;;;23.20;3.00;;;3.70;99.90;;;-144.05;78.95;57046.38;5015003;28;20022;-78
2023/02/25 05:18:51;;;;;;;18.17;2.85;;;3.80;99.90;;;-144.05;78.99;57065.47;5015037;28;20401;-78
2023/02/25 05:21:23;;;;;;;12.00;2.70;;;3.70;99.90;;;-144.05;78.82;57086.72;5014638;28;20109;-78
2023/02/25 05:23:52;;;;;;;17.85;3.30;;;3.70;99.90;;;-144.05;78.90;57088.84;4996952;28;20347;-79
2023/02/25 05:26:21;;;;;;;13.93;2.38;;;3.80;99.90;;;-144.05;78.32;57067.59;4997003;28;20057;-77
2023/02/25 05:28:56;;;;;;;20.35;3.95;;;3.70;99.90;;;-144.05;78.59;57084.59;5015427;28;20081;-78
2023/02/25 05:31:24;;;;;;;14.43;2.15;;;3.70;99.90;;;-144.05;78.53;57095.22;5015784;28;20508;-77
2023/02/25 05:33:51;;;;;;;21.27;2.78;;;3.70;99.90;;;-144.05;78.53;57073.97;4997633;28;20069;-76
2023/02/25 05:36:18;;;;;;;17.95;3.35;;;3.70;99.90;;;-144.05;78.55;57078.22;5014355;28;20037;-78
2023/02/25 05:38:45;;;;;;;18.17;3.78;;;3.70;99.90;;;-144.05;78.38;57069.72;5014892;28;20033;-78
2023/02/25 05:41:14;;;;;;;24.38;2.97;;;3.70;99.90;;;-144.05;78.62;57073.97;5014199;28;20029;-78
2023/02/25 05:43:41;;;;;;;16.80;2.83;;;3.70;99.90;;;-144.05;78.48;57069.72;4996726;28;20022;-79
2023/02/25 05:46:10;;;;;;;16.67;2.58;;;3.70;99.90;;;-144.05;78.46;57050.63;5014104;28;20040;-77
2023/02/25 05:48:41;;;;;;;13.27;2.80;;;3.70;99.90;;;-144.05;78.11;57069.72;5014708;28;20022;-79
2023/02/25 05:51:17;;;;;;;17.48;2.33;;;3.70;99.90;;;-144.05;78.82;57073.97;5014785;28;20022;-79
2023/02/25 05:53:43;;;;;;;16.52;2.55;;;3.70;99.90;;;-144.05;78.27;57090.97;5014460;28;20109;-75
2023/02/25 05:56:23;;;;;;;20.75;3.03;;;3.70;99.90;;;-144.05;78.35;57071.84;5013642;28;20030;-78
2023/02/25 05:58:49;;;;;;;16.80;3.78;;;3.70;99.90;;;-144.05;77.54;57090.97;5014052;28;20022;-76
2023/02/25 06:01:22;;;;;;;21.60;2.80;;;3.70;99.90;;;-144.05;78.05;57090.97;5015253;28;20030;-76
2023/02/25 06:03:57;;;;;;;17.90;3.20;;;3.70;99.90;;;-144.05;77.65;57080.34;4995936;28;20061;-78
2023/02/25 06:06:27;;;;;;;14.18;3.45;;;3.70;99.90;;;-144.05;77.90;57088.84;5015054;28;20109;-78
2023/02/25 06:08:53;;;;;;;28.98;3.63;;;3.70;99.90;;;-144.05;77.96;57082.47;5013532;28;20022;-76
2023/02/25 06:11:25;;;;;;;21.38;3.33;;;3.70;99.90;;;-144.05;77.88;57065.47;5014412;28;20033;-76
2023/02/25 06:13:54;;;;;;;16.52;3.15;;;3.70;99.90;;;-144.05;78.10;57063.34;5015139;28;20397;-78
2023/02/25 06:16:21;;;;;;;19.98;4.53;;;3.70;99.90;;;-144.05;77.36;57071.84;5014597;28;20451;-78
2023/02/25 06:18:48;;;;;;;25.08;2.83;;;3.70;99.90;;;-144.05;77.34;57090.97;4997015;28;20084;-78
2023/02/25 06:21:14;;;;;;;15.70;2.92;;;3.70;99.90;;;-144.05;77.24;57069.72;5013964;28;20076;-78
2023/02/25 06:23:43;;;;;;;16.63;3.13;;;3.70;99.90;;;-144.05;77.89;57073.97;4996561;28;20580;-77
2023/02/25 06:26:13;;;;;;;19.25;3.22;;;3.70;99.90;;;-144.05;77.48;57078.22;5014822;28;20036;-77
2023/02/25 06:28:39;;;;;;;22.25;3.17;;;3.60;99.90;;;-144.05;77.71;57080.34;5014034;28;20026;-78
2023/02/25 06:31:15;;;;;;;18.55;3.63;;;3.60;99.90;;;-144.05;77.61;57059.09;5014498;28;20025;-79
2023/02/25 06:33:42;;;;;;;22.25;2.85;;;3.70;99.90;;;-144.05;77.68;57069.72;4996949;28;20037;-78
2023/02/25 06:36:09;;;;;;;18.23;2.83;;;3.70;99.90;;;-144.05;77.44;57054.88;5014741;28;20350;-78
2023/02/25 06:38:35;;;;;;;17.13;2.78;;;3.70;99.90;;;-144.05;77.45;57088.84;5014109;28;20517;-77
2023/02/25 06:41:14;;;;;;;18.00;2.72;;;3.70;99.90;;;-144.05;76.97;57046.38;5013721;28;20049;-78
2023/02/25 06:43:41;;;;;;;23.80;3.28;;;3.70;99.90;;;-144.05;77.15;57090.97;5013663;28;20102;-79
2023/02/25 06:46:11;;;;;;;15.00;2.95;;;3.70;99.90;;;-144.05;76.86;57090.97;5014318;28;20478;-79
2023/02/25 06:48:39;;;;;;;29.63;3.53;;;3.70;99.90;;;-144.05;76.89;57088.84;5013886;28;20033;-78
2023/02/25 06:51:08;;;;;;;14.20;2.90;;;3.80;99.90;;;-144.05;76.12;57061.22;5014279;28;20440;-76
2023/02/25 06:53:36;;;;;;;13.18;2.40;;;3.80;99.90;;;-144.05;76.48;57067.59;5014373;28;20053;-78
2023/02/25 06:56:03;;;;;;;19.15;2.58;;;3.80;99.90;;;-144.05;76.52;57078.22;5014865;28;20022;-77
2023/02/25 06:58:28;;;;;;;14.88;3.38;;;3.80;99.90;;;-144.05;76.72;57084.59;5015796;28;20036;-78
2023/02/25 07:00:54;;;;;;;14.93;2.95;;;3.90;99.90;;;-144.05;76.12;57069.72;5034315;28;20049;-77
2023/02/25 07:03:20;;;;;;;17.00;3.10;;;3.90;99.90;;;-144.05;76.47;57071.84;5034041;28;20025;-78
2023/02/25 07:05:46;;;;;;;15.55;3.53;;;3.90;99.90;;;-144.05;76.14;57065.47;5033336;28;20029;-78
2023/02/25 07:08:12;;;;;;;13.98;2.33;;;3.90;99.90;;;-144.05;76.43;57099.47;5033921;28;20036;-78
2023/02/25 07:10:39;;;;;;;20.73;3.65;;;3.90;99.90;;;-144.05;76.34;57099.47;5034256;28;20056;-78
2023/02/25 07:13:07;;;;;;;20.65;3.75;;;3.90;99.90;;;-144.05;76.13;57073.97;5016549;28;20162;-77
2023/02/25 07:15:34;;;;;;;19.92;2.92;;;3.90;99.90;;;-144.05;75.93;57048.50;5033637;28;20029;-77
2023/02/25 07:18:00;;;;;;;18.52;2.97;;;3.90;99.90;;;-144.05;75.91;57069.72;5033975;28;20040;-80
2023/02/25 07:20:26;;;;;;;20.92;3.47;;;3.90;99.90;;;-144.05;75.67;57073.97;5033378;28;20083;-78
2023/02/25 07:22:52;;;;;;;15.82;3.00;;;3.90;99.90;;;-144.05;75.25;57065.47;5032600;28;20061;-78
2023/02/25 07:25:18;;;;;;;17.75;3.08;;;3.90;99.90;;;-144.05;75.26;57046.38;5034099;28;20038;-78
2023/02/25 07:27:43;;;;;;;22.77;3.22;;;4.00;99.90;;;-144.05;74.90;57040.00;5037784;28;20029;-78
2023/02/25 07:30:14;;;;;;;19.42;2.67;;;4.00;99.90;;;-144.05;75.39;57071.84;5019238;28;20393;-77
2023/02/25 07:32:42;;;;;;;24.23;3.08;;;4.00;99.90;;;-144.05;74.99;57061.22;5038071;28;20038;-78
2023/02/25 07:35:09;;;;;;;21.23;3.58;;;4.10;99.90;;;-144.05;74.72;57078.22;5038678;28;20026;-77
2023/02/25 07:37:35;;;;;;;18.67;3.08;;;4.20;99.90;;;-144.05;74.52;57073.97;5039076;28;20033;-77
2023/02/25 07:40:01;;;;;;;14.32;2.65;;;4.20;99.90;;;-144.05;74.98;57061.22;5020345;28;20507;-79
2023/02/25 07:42:27;;;;;;;16.63;2.70;;;4.20;99.90;;;-144.05;74.41;57048.50;5039287;28;20033;-77
2023/02/25 07:44:53;;;;;;;14.07;3.25;;;4.20;99.90;;;-144.05;74.53;57056.97;5023552;28;20554;-76
2023/02/25 07:47:20;;;;;;;28.00;5.07;;;4.20;99.90;;;-144.05;74.88;57071.84;5037446;28;20068;-77
2023/02/25 07:49:47;;;;;;;17.02;2.80;;;4.20;99.90;;;-144.05;74.96;57059.09;5036126;28;20057;-77
2023/02/25 07:52:13;;;;;;;17.45;3.17;;;4.20;99.90;;;-144.05;75.02;57059.09;5018500;28;20029;-74
2023/02/25 07:54:39;;;;;;;27.98;4.28;;;4.10;99.90;;;-144.05;75.30;57056.97;5035603;28;20370;-77
2023/02/25 07:57:05;;;;;;;20.35;2.78;;;4.20;99.90;;;-144.05;74.96;57059.09;5035166;28;20492;-76
2023/02/25 07:59:32;;;;;;;17.48;2.78;;;4.20;99.90;;;-144.05;75.37;57056.97;5017395;28;20029;-76
2023/02/25 08:01:59;;;;;;;16.92;3.00;;;4.30;99.90;;;-144.05;75.06;57056.97;5035277;28;20112;-76
2023/02/25 08:04:26;;;;;;;20.65;3.17;;;4.40;99.90;;;-144.05;75.43;57065.47;5035446;28;20510;-76
2023/02/25 08:06:52;;;;;;;16.92;3.10;;;4.40;99.90;;;-144.05;75.06;57086.72;5019226;28;20369;-77
2023/02/25 08:09:18;;;;;;;25.27;3.75;;;4.40;99.90;;;-144.05;74.90;57067.59;5035861;28;20029;-76
2023/02/25 08:11:44;;;;;;;15.93;2.85;;;4.40;99.90;;;-144.05;75.10;57073.97;5018456;28;20033;-79
2023/02/25 08:14:11;;;;;;;21.33;3.50;;;4.40;99.90;;;-144.05;75.48;57069.72;5017634;28;20079;-77
2023/02/25 08:16:37;;;;;;;24.73;3.92;;;4.30;99.90;;;-144.05;75.43;57078.22;5035775;28;20104;-75
2023/02/25 08:19:05;;;;;;;22.00;3.10;;;4.30;99.90;;;-144.05;75.87;57078.22;5035838;28;20033;-76
2023/02/25 08:21:32;;;;;;;11.93;2.70;;;4.30;99.90;;;-144.05;75.54;57059.09;5017744;28;20055;-77
2023/02/25 08:23:58;;;;;;;12.07;2.78;;;4.30;99.90;;;-144.05;75.65;57067.59;5036779;28;20030;-78
2023/02/25 08:26:26;;;;;;;17.98;3.17;;;4.40;99.90;;;-144.05;75.30;57052.75;5036414;28;20029;-76
2023/02/25 08:28:53;;;;;;;16.95;3.00;;;4.50;99.90;;;-144.05;74.75;57065.47;5035543;28;20060;-74
2023/02/25 08:31:20;;;;;;;16.20;3.22;;;4.40;99.90;;;-144.05;74.80;57069.72;5034588;28;20029;-76
2023/02/25 08:33:51;;;;;;;14.35;2.67;;;4.50;99.90;;;-144.05;74.91;57033.63;5018448;28;20076;-74
2023/02/25 08:36:30;;;;;;;15.77;2.88;;;4.60;99.90;;;-144.05;74.40;57046.38;5037892;28;20295;-74
2023/02/25 08:38:58;;;;;;;17.27;3.15;;;4.70;99.90;;;-144.05;74.20;57071.84;5038207;28;20108;-73
2023/02/25 08:41:27;;;;;;;18.55;3.65;;;4.90;99.90;;;-144.05;73.82;57035.75;5057629;22;20055;-77
2023/02/25 08:43:57;;;;;;;18.60;3.45;;;5.00;99.90;;;-144.05;72.98;57056.97;5018629;28;20029;-76
2023/02/25 08:46:27;;;;;;;12.02;2.78;;;5.10;99.90;;;-144.05;72.86;57046.38;5017372;28;20040;-76
2023/02/25 08:48:54;;;;;;;16.95;2.97;;;5.10;99.90;;;-144.05;72.58;57073.97;5034786;28;20029;-76
2023/02/25 08:51:32;;;;;;;15.35;2.95;;;5.10;99.90;;;-144.05;72.73;57044.25;5034353;28;20033;-78
2023/02/25 08:54:05;;;;;;;18.17;3.25;;;5.20;99.90;;;-144.05;71.92;57069.72;5034567;28;20441;-76
2023/02/25 08:56:33;;;;;;;15.45;2.38;;;5.10;99.90;;;-144.05;72.45;57035.75;5034714;28;20029;-76
2023/02/25 08:59:00;;;;;;;21.20;3.28;;;5.10;99.90;;;-144.05;72.31;57048.50;5016098;28;20465;-76
2023/02/25 09:01:43;;;;;;;19.17;3.72;;;5.10;99.90;;;-144.05;72.33;57046.38;5034199;28;20088;-76
2023/02/25 09:04:21;;;;;;;15.40;3.40;;;5.10;99.90;;;-144.05;72.57;57059.09;5034427;28;20041;-76
2023/02/25 09:06:49;;;;;;;15.77;3.58;;;5.10;99.90;;;-144.05;72.84;57063.34;5034515;28;20033;-76
2023/02/25 09:09:18;;;;;;;13.30;2.78;;;5.00;99.90;;;-144.05;72.46;57052.75;5016119;28;20033;-76
2023/02/25 09:11:47;;;;;;;15.57;2.90;;;5.00;99.90;;;-144.05;72.50;57035.75;5033769;28;20259;-76
2023/02/25 09:14:14;;;;;;;13.68;2.75;;;5.00;99.90;;;-144.05;72.24;57059.09;5033595;28;20036;-75
2023/02/25 09:16:40;;;;;;;17.08;2.90;;;5.10;99.90;;;-144.05;72.61;57048.50;5033999;28;20489;-76
2023/02/25 09:19:06;;;;;;;12.23;3.17;;;5.10;99.90;;;-144.05;72.26;57050.63;5034063;28;20053;-76
2023/02/25 09:21:34;;;;;;;9.40;1.67;;;5.00;99.90;;;-144.05;72.69;57078.22;5015006;28;20452;-76
2023/02/25 09:24:00;;;;;;;5.43;1.58;;;4.70;99.90;;;-144.05;73.99;57090.97;5033476;28;20038;-76
2023/02/25 09:26:26;;;;;;;7.57;1.60;;;4.10;99.90;;;-144.05;75.69;57056.97;5016946;28;20060;-76
2023/02/25 09:28:52;;;;;;;7.97;2.40;;;3.70;99.90;;;-144.05;75.59;57082.47;5016499;28;20032;-75
2023/02/25 09:31:18;;;;;;;9.65;1.73;;;3.40;99.90;;;-144.05;76.86;57059.09;5016524;28;20026;-76
2023/02/25 09:33:44;;;;;;;4.78;1.48;;;3.30;99.90;;;-144.05;77.75;57088.84;5033782;28;20025;-75
2023/02/25 09:36:16;;;;;;;9.25;1.58;;;3.30;99.90;;;-144.05;78.37;57067.59;5040234;28;20021;-77
2023/02/25 09:38:44;;;;;;;6.95;1.70;;;3.50;99.90;;;-144.05;78.91;57050.63;5034245;28;20032;-76
2023/02/25 09:41:44;;;;;;;13.40;1.75;;;3.70;99.90;;;-144.05;78.95;57073.97;5015581;28;20029;-76
2023/02/25 09:44:32;;;;;;;12.75;1.65;;;4.40;99.90;;;-144.05;76.82;57031.50;5034667;28;20053;-76
2023/02/25 09:47:22;;;;;;;8.10;1.67;;;4.90;99.90;;;-144.05;74.36;57044.25;5016451;28;20399;-76
2023/02/25 09:50:13;;;;;;;5.25;1.08;;;5.00;99.90;;;-144.05;73.67;57052.75;5032839;28;20029;-76
2023/02/25 09:52:58;;;;;;;6.82;1.63;;;5.00;99.90;;;-144.05;73.70;57054.88;5033238;28;20029;-76
2023/02/25 09:55:37;;;;;;;8.00;1.85;;;5.00;99.90;;;-144.05;72.36;57031.50;5033718;28;20432;-77
2023/02/25 09:58:40;;;;;;;7.22;1.67;;;4.90;99.90;;;-144.05;72.87;57050.63;5033726;28;20378;-76
2023/02/25 10:01:37;;;;;;;8.60;1.45;;;4.90;99.90;;;-144.05;73.35;57031.50;5034900;28;20076;-76
2023/02/25 10:04:18;;;;;;;6.47;1.50;;;4.90;99.90;;;-144.05;73.71;57069.72;5035314;28;20469;-76
2023/02/25 10:06:51;;;;;;;8.32;1.80;;;5.00;99.90;;;-144.05;73.03;57029.38;5036247;28;20078;-76
2023/02/25 10:10:32;;;;;;;7.05;2.00;;;5.50;99.90;;;-144.05;71.75;57025.13;5017685;28;20044;-75
2023/02/25 10:13:22;;;;;;;7.72;1.60;;;5.90;99.90;;;-144.05;69.60;57031.50;4955375;29;20050;-75
2023/02/25 10:16:35;;;;;;;6.03;1.52;;;5.90;99.90;;;-144.05;71.38;57056.97;5017979;28;20025;-75
2023/02/25 10:19:33;;;;;;;3.75;1.00;;;5.30;99.90;;;-144.05;71.88;57067.59;5019669;28;20030;-74
2023/02/25 10:22:52;;;;;;;2.92;0.70;;;3.50;99.90;;;-144.05;73.75;57073.97;5036018;28;20029;-76
2023/02/25 10:25:36;;;;;;;6.47;1.20;;;2.90;99.90;;;-144.05;76.07;57084.59;5034085;28;20029;-75
2023/02/25 10:28:14;;;;;;;4.55;1.67;;;2.30;99.90;;;-144.05;76.86;57120.72;5037838;28;20097;-76
2023/02/25 10:31:04;;;;;;;9.55;1.30;;;2.10;99.90;;;-144.05;77.78;57103.72;5033399;28;20078;-76
2023/02/25 10:33:40;;;;;;;8.82;1.63;;;2.10;99.90;;;-144.05;78.06;57105.84;5032768;28;20029;-76